Terminal Aerodrome Forecast
Issued by NWS Los Angeles, CA

Home | Current Version | Previous Version | Text Only | Print | Product List | Glossary On
Versions: 1 2 3 4 5 6 7 8 9 10 11 12 13 14 15 16 17 18 19 20 21 22 23 24
000
FTUS46 KLOX 190500
TAFSMX
TAF
KSMX 190532Z 1906/2006 VRB05KT P6SM OVC015
     FM191800 30007KT P6SM SKC
     FM192100 30015G22KT P6SM SKC
     FM200300 30008KT P6SM SKC=

USA.gov is the U.S. government's official web portal to all federal, state and local government web resources and services.